Time;durP1;ratioP1;P1;durP2;ratioP2;P2;SDS_P1;SDS_P2;PMS_P1;PMS_P2;Temp;Humidity;BMP_temperature;BMP_pressure;BME280_temperature;BME280_humidity;BME280_pressure;Samples;Min_cycle;Max_cycle;Signal;HPM_P1;HPM_P2
2022/07/07 00:00:45;;;;;;;7.80;4.55;;;;;;;17.63;63.46;100536.94;5101333;28;20101;-57
2022/07/07 00:03:29;;;;;;;6.30;3.75;;;;;;;17.61;63.44;100536.06;5117140;28;20119;-58
2022/07/07 00:06:13;;;;;;;;;;;;;;;17.60;63.47;100530.81;5116965;28;20046;-58
2022/07/07 00:08:57;;;;;;;9.43;4.20;;;;;;;17.59;63.58;100531.72;5116464;28;20284;-58
2022/07/07 00:11:41;;;;;;;5.65;3.63;;;;;;;17.59;63.55;100534.34;5101416;28;20048;-57
2022/07/07 00:14:25;;;;;;;8.73;3.60;;;;;;;17.60;63.58;100525.56;5116777;28;20094;-57
2022/07/07 00:17:09;;;;;;;;;;;;;;;17.58;63.47;100530.00;5102193;28;20580;-57
2022/07/07 00:19:54;;;;;;;5.30;3.67;;;;;;;17.58;63.67;100525.59;5116956;28;20018;-58
2022/07/07 00:22:38;;;;;;;5.50;3.47;;;;;;;17.59;63.83;100529.13;5116168;28;20070;-59
2022/07/07 00:25:21;;;;;;;6.40;3.95;;;;;;;17.60;63.77;100528.19;5116920;28;20046;-57
2022/07/07 00:28:05;;;;;;;4.22;3.38;;;;;;;17.59;63.63;100524.72;5116199;28;20059;-59
2022/07/07 00:30:49;;;;;;;8.20;3.65;;;;;;;17.59;63.92;100529.97;5116884;28;20081;-59
2022/07/07 00:33:33;;;;;;;4.82;3.30;;;;;;;17.60;63.92;100531.72;5116340;28;20577;-59
2022/07/07 00:36:17;;;;;;;6.10;3.65;;;;;;;17.60;63.80;100521.22;5116380;28;20077;-59
2022/07/07 00:39:01;;;;;;;4.80;3.28;;;;;;;17.61;63.78;100522.09;5101283;28;20078;-59
2022/07/07 00:41:45;;;;;;;5.10;3.05;;;;;;;17.62;63.86;100513.34;5116006;28;20097;-59
2022/07/07 00:44:29;;;;;;;4.35;2.97;;;;;;;17.61;64.07;100516.84;5115790;28;20427;-58
2022/07/07 00:47:13;;;;;;;4.35;3.17;;;;;;;17.62;63.92;100510.72;5115990;28;20077;-57
2022/07/07 00:49:57;;;;;;;4.57;3.10;;;;;;;17.61;63.80;100517.72;5115970;28;20078;-57
2022/07/07 00:52:41;;;;;;;3.03;2.67;;;;;;;17.62;64.01;100521.22;5116004;28;20046;-57
2022/07/07 00:55:25;;;;;;;3.20;2.65;;;;;;;17.62;63.97;100506.38;5115704;28;20085;-57
2022/07/07 00:58:09;;;;;;;;;;;;;;;17.60;64.03;100512.47;5116483;28;20039;-59
2022/07/07 01:00:53;;;;;;;4.22;3.47;;;;;;;17.59;64.43;100502.91;5100408;28;19926;-58
2022/07/07 01:03:37;;;;;;;8.98;2.90;;;;;;;17.60;64.25;100499.38;5115994;28;20408;-57
2022/07/07 01:06:22;;;;;;;7.05;3.10;;;;;;;17.61;64.17;100496.75;5116199;28;20046;-59
2022/07/07 01:09:06;;;;;;;5.65;3.03;;;;;;;17.59;64.37;100482.78;5100727;28;20518;-59
2022/07/07 01:11:56;;;;;;;4.90;2.75;;;;;;;17.59;64.44;100488.03;5115257;28;20544;-59
2022/07/07 01:14:40;;;;;;;3.60;2.67;;;;;;;17.61;64.24;100478.41;5100152;28;20087;-59
2022/07/07 01:17:24;;;;;;;11.20;3.40;;;;;;;17.60;64.41;100463.56;5115605;28;20100;-59
2022/07/07 01:20:10;;;;;;;3.25;2.78;;;;;;;17.61;64.55;100464.44;5115596;28;20071;-59
2022/07/07 01:22:55;;;;;;;4.53;2.60;;;;;;;17.60;64.53;100458.31;5100142;28;20107;-58
2022/07/07 01:25:39;;;;;;;4.75;3.00;;;;;;;17.61;64.54;100449.59;5100161;28;20043;-59
2022/07/07 01:28:24;;;;;;;3.80;2.30;;;;;;;17.60;64.55;100453.09;5115365;28;20050;-59
2022/07/07 01:31:08;;;;;;;4.88;2.20;;;;;;;17.60;64.38;100452.19;5115480;28;20046;-59
2022/07/07 01:33:53;;;;;;;4.38;2.38;;;;;;;17.60;64.59;100446.97;5100195;28;20051;-59
2022/07/07 01:36:36;;;;;;;3.08;2.55;;;;;;;17.61;64.79;100448.69;5115533;28;20092;-58
2022/07/07 01:39:20;;;;;;;4.53;2.75;;;;;;;17.60;64.87;100450.47;5115173;28;20067;-57
2022/07/07 01:42:05;;;;;;;4.75;2.88;;;;;;;17.62;64.85;100445.19;5114899;28;20112;-59
2022/07/07 01:44:51;;;;;;;6.38;2.70;;;;;;;17.61;64.98;100452.22;5100035;28;20047;-59
2022/07/07 01:47:35;;;;;;;4.43;2.70;;;;;;;17.61;64.78;100451.31;5114839;28;20051;-58
2022/07/07 01:50:21;;;;;;;5.43;3.05;;;;;;;17.61;64.99;100440.84;5114656;28;20141;-58
2022/07/07 01:53:05;;;;;;;4.18;2.83;;;;;;;17.61;65.04;100444.34;5115107;28;20522;-57
2022/07/07 01:55:49;;;;;;;5.28;2.80;;;;;;;17.60;65.12;100442.59;5114953;28;20054;-59
2022/07/07 01:58:33;;;;;;;;;;;;;;;17.60;65.14;100441.72;5099665;28;20101;-59
2022/07/07 02:01:18;;;;;;;4.60;2.97;;;;;;;17.58;65.01;100439.13;5114887;28;19923;-59
2022/07/07 02:04:02;;;;;;;3.55;2.78;;;;;;;17.59;64.96;100442.63;5114214;28;20050;-59
2022/07/07 02:06:46;;;;;;;4.60;3.13;;;;;;;17.59;65.48;100440.00;5114614;28;20047;-58
2022/07/07 02:09:32;;;;;;;5.78;3.03;;;;;;;17.59;65.36;100440.88;5114757;28;20180;-58
2022/07/07 02:12:17;;;;;;;21.38;3.15;;;;;;;17.60;65.28;100428.63;5113696;28;20054;-59
2022/07/07 02:15:01;;;;;;;4.43;2.22;;;;;;;17.59;65.29;100430.38;5114483;28;20097;-59
2022/07/07 02:17:45;;;;;;;3.47;2.72;;;;;;;17.61;65.63;100428.63;5114306;28;20104;-59
2022/07/07 02:20:29;;;;;;;5.13;3.00;;;;;;;17.60;65.55;100419.03;5114441;28;20408;-58
2022/07/07 02:23:13;;;;;;;5.07;2.55;;;;;;;17.60;65.46;100426.88;5114349;28;20046;-58
2022/07/07 02:25:58;;;;;;;4.65;2.80;;;;;;;17.61;65.74;100427.75;5114673;28;20050;-58
2022/07/07 02:28:42;;;;;;;3.08;2.50;;;;;;;17.61;65.84;100433.88;5098786;28;20059;-58
2022/07/07 02:31:27;;;;;;;5.05;3.00;;;;;;;17.61;65.77;100425.13;5114590;28;20188;-58
2022/07/07 02:34:10;;;;;;;5.75;2.90;;;;;;;17.61;65.72;100417.25;5114445;28;20050;-58
2022/07/07 02:36:54;;;;;;;5.88;2.90;;;;;;;17.60;65.76;100421.66;5113742;28;20051;-58
2022/07/07 02:39:38;;;;;;;5.30;3.00;;;;;;;17.60;65.71;100421.66;5114132;28;20540;-58
2022/07/07 02:42:22;;;;;;;3.92;2.92;;;;;;;17.62;65.89;100422.50;5114025;28;20062;-58
2022/07/07 02:45:07;;;;;;;4.30;2.42;;;;;;;17.62;65.88;100419.00;5114174;28;20093;-58
2022/07/07 02:47:53;;;;;;;4.15;2.72;;;;;;;17.63;66.11;100420.75;5113788;28;20045;-57
2022/07/07 02:50:38;;;;;;;4.10;2.72;;;;;;;17.62;66.12;100414.66;5113953;28;20589;-57
2022/07/07 02:53:22;;;;;;;5.03;3.22;;;;;;;17.62;66.05;100422.50;5098962;28;20404;-58
2022/07/07 02:56:06;;;;;;;7.25;3.13;;;;;;;17.62;66.17;100417.25;5114213;28;20051;-59
2022/07/07 02:58:50;;;;;;;8.10;3.08;;;;;;;17.61;66.11;100412.91;5098464;28;20085;-57
2022/07/07 03:01:34;;;;;;;4.80;2.90;;;;;;;17.62;66.24;100416.38;5113613;28;20046;-57
2022/07/07 03:04:18;;;;;;;6.43;3.10;;;;;;;17.61;66.21;100401.53;5114181;28;20081;-57
2022/07/07 03:07:02;;;;;;;5.18;3.03;;;;;;;17.60;66.12;100416.41;5113449;28;20051;-57
2022/07/07 03:09:47;;;;;;;;;;;;;;;17.60;66.14;100418.13;5098891;28;20047;-57
2022/07/07 03:12:30;;;;;;;4.95;2.95;;;;;;;17.59;66.26;100412.03;5113626;28;20041;-57
2022/07/07 03:15:15;;;;;;;4.88;3.13;;;;;;;17.61;66.30;100414.63;5113258;28;20096;-58
2022/07/07 03:17:59;;;;;;;4.80;2.92;;;;;;;17.60;66.34;100405.91;5098350;28;20103;-57
2022/07/07 03:20:43;;;;;;;;;;;;;;;17.58;66.22;100417.31;5098607;28;20577;-57
2022/07/07 03:23:27;;;;;;;3.63;2.70;;;;;;;17.58;66.33;100410.28;5115678;27;20386;-57
2022/07/07 03:26:11;;;;;;;6.50;3.70;;;;;;;17.59;66.36;100404.19;5117722;28;20519;-59
2022/07/07 03:28:55;;;;;;;2.92;2.63;;;;;;;17.59;66.40;100405.94;5117755;28;20104;-57
2022/07/07 03:31:39;;;;;;;6.63;3.13;;;;;;;17.59;66.71;100411.19;5117940;28;20142;-60
2022/07/07 03:34:23;;;;;;;4.20;2.75;;;;;;;17.60;66.42;100413.78;5117773;28;20560;-57
2022/07/07 03:37:07;;;;;;;4.43;3.20;;;;;;;17.59;66.50;100416.44;5117939;28;20503;-57
2022/07/07 03:39:51;;;;;;;5.50;2.80;;;;;;;17.60;66.57;100415.50;5117610;28;20111;-57
2022/07/07 03:42:37;;;;;;;8.70;3.60;;;;;;;17.60;66.44;100412.91;5101858;28;20488;-57
2022/07/07 03:45:21;;;;;;;7.55;3.33;;;;;;;17.59;66.58;100412.03;5117484;28;20073;-57
2022/07/07 03:48:05;;;;;;;6.95;3.10;;;;;;;17.57;66.64;100408.56;5117312;28;20042;-59
2022/07/07 03:50:49;;;;;;;4.43;3.10;;;;;;;17.59;66.59;100414.66;5101655;28;20046;-57
2022/07/07 03:53:33;;;;;;;6.22;3.25;;;;;;;17.60;66.54;100415.50;5117465;28;20096;-58
2022/07/07 03:56:17;;;;;;;3.97;2.67;;;;;;;17.60;66.85;100416.41;5116850;28;20050;-58
2022/07/07 03:59:02;;;;;;;8.52;3.17;;;;;;;17.60;66.61;100419.03;5117470;28;20177;-59
2022/07/07 04:01:46;;;;;;;4.32;3.20;;;;;;;17.61;66.59;100417.25;5116719;28;20043;-60
2022/07/07 04:04:29;;;;;;;6.75;3.03;;;;;;;17.60;66.73;100419.03;5101727;28;20043;-57
2022/07/07 04:07:14;;;;;;;3.65;2.97;;;;;;;17.60;66.67;100416.41;5116573;28;20130;-57
2022/07/07 04:09:57;;;;;;;5.95;2.67;;;;;;;17.61;66.70;100409.41;5117025;28;20042;-57
2022/07/07 04:12:42;;;;;;;4.72;2.90;;;;;;;17.60;66.88;100408.53;5117237;28;20109;-57
2022/07/07 04:15:25;;;;;;;4.45;3.28;;;;;;;17.60;66.78;100405.03;5116618;28;20092;-57
2022/07/07 04:18:12;;;;;;;5.10;3.38;;;;;;;17.58;66.48;100397.19;5117094;28;20136;-57
2022/07/07 04:20:58;;;;;;;4.15;3.22;;;;;;;17.59;66.79;100393.69;5116748;28;20099;-57
2022/07/07 04:23:42;;;;;;;5.22;2.90;;;;;;;17.59;66.89;100384.97;5116332;28;20047;-57
2022/07/07 04:26:27;;;;;;;4.68;4.03;;;;;;;17.58;66.94;100375.38;5116516;28;20074;-57
2022/07/07 04:29:11;;;;;;;5.45;3.08;;;;;;;17.56;66.97;100383.22;5116469;28;20474;-57
2022/07/07 04:31:54;;;;;;;4.80;3.05;;;;;;;17.57;67.06;100395.44;5116445;28;20050;-58
2022/07/07 04:34:38;;;;;;;5.03;3.00;;;;;;;17.56;66.89;100396.34;5116025;28;20051;-57
2022/07/07 04:37:22;;;;;;;5.63;3.38;;;;;;;17.56;66.96;100392.84;5116420;28;20074;-58
2022/07/07 04:40:07;;;;;;;4.88;3.33;;;;;;;17.56;67.09;100388.47;5116332;28;20051;-57
2022/07/07 04:42:51;;;;;;;7.07;3.15;;;;;;;17.56;67.28;100392.84;5100831;28;20124;-58
2022/07/07 04:45:35;;;;;;;5.72;3.10;;;;;;;17.57;67.21;100397.22;5116203;28;20054;-57
2022/07/07 04:48:19;;;;;;;3.78;3.20;;;;;;;17.57;67.12;100398.06;5115989;28;20473;-57
2022/07/07 04:51:03;;;;;;;6.47;3.90;;;;;;;17.56;67.36;100393.72;5116180;28;20108;-57
2022/07/07 04:53:48;;;;;;;7.05;3.83;;;;;;;17.56;67.25;100393.72;5116113;28;20123;-57
2022/07/07 04:56:32;;;;;;;5.68;3.05;;;;;;;17.56;67.34;100393.72;5116012;28;20101;-58
2022/07/07 04:59:16;;;;;;;4.63;3.05;;;;;;;17.56;67.23;100392.84;5115801;28;20538;-57
2022/07/07 05:01:59;;;;;;;6.63;3.00;;;;;;;17.56;67.31;100392.84;5116128;28;20549;-58
2022/07/07 05:04:44;;;;;;;7.88;3.65;;;;;;;17.57;67.31;100395.44;5116012;28;20039;-58
2022/07/07 05:07:28;;;;;;;7.15;3.17;;;;;;;17.56;67.43;100400.72;5100689;28;20118;-57
2022/07/07 05:10:13;;;;;;;6.70;3.63;;;;;;;17.56;67.46;100403.34;5115713;28;20087;-57
2022/07/07 05:12:59;;;;;;;4.13;3.05;;;;;;;17.57;67.47;100394.59;5115594;28;20445;-58
2022/07/07 05:15:44;;;;;;;4.55;3.40;;;;;;;17.58;67.31;100405.06;5115745;28;20047;-57
2022/07/07 05:18:29;;;;;;;7.38;3.60;;;;;;;17.57;67.42;100403.31;5115634;28;20054;-57
2022/07/07 05:21:14;;;;;;;3.88;3.20;;;;;;;17.57;67.58;100405.09;5115524;28;20043;-58
2022/07/07 05:23:57;;;;;;;5.05;3.30;;;;;;;17.56;67.58;100388.47;5115759;28;20120;-58
2022/07/07 05:26:41;;;;;;;8.32;3.42;;;;;;;17.57;67.78;100399.84;5115283;28;20128;-59
2022/07/07 05:29:26;;;;;;;8.23;3.30;;;;;;;17.57;67.73;100402.47;5115165;28;20050;-58
2022/07/07 05:32:10;;;;;;;5.30;3.58;;;;;;;17.58;67.58;100404.19;5100280;28;20050;-57
2022/07/07 05:34:54;;;;;;;8.00;4.05;;;;;;;17.58;67.89;100410.28;5099734;28;20082;-58
2022/07/07 05:37:40;;;;;;;;;;;;;;;17.57;67.51;100416.41;5115522;28;20408;-59
2022/07/07 05:40:25;;;;;;;6.68;3.65;;;;;;;17.56;67.59;100414.66;5099776;28;19984;-58
2022/07/07 05:43:08;;;;;;;4.70;3.30;;;;;;;17.54;67.60;100424.28;5099195;28;20107;-56
2022/07/07 05:45:52;;;;;;;6.40;3.25;;;;;;;17.55;67.73;100431.28;5114044;28;20530;-59
2022/07/07 05:48:36;;;;;;;9.02;3.45;;;;;;;17.54;67.65;100440.00;5115143;28;20569;-60
2022/07/07 05:51:20;;;;;;;15.05;3.60;;;;;;;17.56;67.92;100445.25;5114953;28;20099;-59
2022/07/07 05:54:04;;;;;;;5.47;3.28;;;;;;;17.55;67.97;100443.53;5115170;28;20510;-59
2022/07/07 05:56:48;;;;;;;4.63;3.08;;;;;;;17.56;68.07;100437.41;5128948;27;20062;-58
2022/07/07 05:59:32;;;;;;;4.57;3.45;;;;;;;17.58;68.07;100440.88;5114352;28;20130;-59
2022/07/07 06:02:16;;;;;;;8.25;3.80;;;;;;;17.56;68.26;100433.00;5114684;28;20408;-59
2022/07/07 06:05:00;;;;;;;3.70;3.15;;;;;;;17.58;68.20;100433.88;5115046;28;20100;-59
2022/07/07 06:07:44;;;;;;;4.47;3.15;;;;;;;17.57;68.34;100434.75;5114738;28;20046;-59
2022/07/07 06:10:28;;;;;;;4.72;3.35;;;;;;;17.60;68.31;100437.38;5098962;28;20133;-59
2022/07/07 06:13:12;;;;;;;4.78;3.05;;;;;;;17.59;68.37;100446.09;5114553;28;20058;-59
2022/07/07 06:15:56;;;;;;;12.18;3.08;;;;;;;17.60;68.45;100447.84;5098790;28;20519;-59
2022/07/07 06:18:41;;;;;;;6.75;2.90;;;;;;;17.60;68.34;100449.59;5099045;28;20038;-59
2022/07/07 06:21:25;;;;;;;5.55;2.45;;;;;;;17.60;68.21;100453.09;5114336;28;20146;-59
2022/07/07 06:24:10;;;;;;;6.43;3.03;;;;;;;17.59;68.43;100463.59;5099080;28;20046;-59
2022/07/07 06:26:53;;;;;;;4.18;2.88;;;;;;;17.57;68.55;100463.59;5114023;28;20043;-59
2022/07/07 06:29:37;;;;;;;9.57;3.50;;;;;;;17.57;68.58;100468.81;5113743;28;20089;-59
2022/07/07 06:32:21;;;;;;;6.28;3.38;;;;;;;17.58;68.57;100467.94;5114412;28;20055;-59
2022/07/07 06:35:06;;;;;;;5.13;2.72;;;;;;;17.57;68.49;100476.69;5114406;28;20077;-58
2022/07/07 06:37:50;;;;;;;;;;;;;;;17.56;68.64;100468.84;5114498;28;20519;-57
2022/07/07 06:40:34;;;;;;;5.70;2.83;;;;;;;17.56;68.73;100479.34;5114423;28;19922;-58
2022/07/07 06:43:18;;;;;;;3.80;2.95;;;;;;;17.55;68.49;100478.44;5114194;28;20101;-58
2022/07/07 06:46:02;;;;;;;6.32;3.00;;;;;;;17.58;68.58;100480.19;5114388;28;20073;-59
2022/07/07 06:48:46;;;;;;;5.97;2.70;;;;;;;17.56;68.85;100471.47;5114129;28;20075;-59
2022/07/07 06:51:30;;;;;;;7.53;3.58;;;;;;;17.56;68.70;100476.72;5113524;28;20050;-59
2022/07/07 06:54:14;;;;;;;6.38;3.38;;;;;;;17.56;68.82;100498.53;5113742;28;20086;-59
2022/07/07 06:56:58;;;;;;;2.78;2.47;;;;;;;17.55;68.53;100494.16;5113274;28;20045;-59
2022/07/07 06:59:42;;;;;;;5.30;2.67;;;;;;;17.54;68.67;100495.03;5113790;28;20050;-59
2022/07/07 07:02:26;;;;;;;4.57;2.53;;;;;;;17.55;69.01;100501.16;5113803;28;20404;-57
2022/07/07 07:05:10;;;;;;;2.97;2.30;;;;;;;17.54;69.00;100513.38;5113572;28;20080;-58
2022/07/07 07:07:54;;;;;;;4.82;2.10;;;;;;;17.53;68.86;100522.13;5114093;28;20535;-57
2022/07/07 07:10:38;;;;;;;2.50;1.92;;;;;;;17.53;68.94;100516.88;5126960;28;20454;-58
2022/07/07 07:13:22;;;;;;;4.78;1.52;;;;;;;17.52;68.93;100520.38;5113980;28;20058;-58
2022/07/07 07:16:06;;;;;;;4.03;2.10;;;;;;;17.51;68.79;100510.81;5113436;28;20050;-58
2022/07/07 07:18:51;;;;;;;3.42;1.70;;;;;;;17.50;69.10;100523.03;5113368;28;20046;-57
2022/07/07 07:21:34;;;;;;;2.65;1.60;;;;;;;17.49;68.96;100530.91;5113214;28;20136;-59
2022/07/07 07:24:18;;;;;;;1.63;1.42;;;;;;;17.47;68.77;100530.03;5113457;28;20051;-59
2022/07/07 07:27:02;;;;;;;3.00;2.25;;;;;;;17.46;69.15;100537.00;5113716;28;20090;-58
2022/07/07 07:29:46;;;;;;;2.83;2.53;;;;;;;17.47;69.09;100541.38;5113535;28;20038;-58
2022/07/07 07:32:30;;;;;;;3.05;2.20;;;;;;;17.47;69.01;100554.47;5113697;28;20105;-58
2022/07/07 07:35:14;;;;;;;2.08;1.65;;;;;;;17.48;69.04;100561.47;5113911;28;20108;-57
2022/07/07 07:37:58;;;;;;;2.95;2.25;;;;;;;17.49;69.18;100559.72;5113135;28;20054;-57
2022/07/07 07:40:42;;;;;;;4.63;2.13;;;;;;;17.49;68.99;100551.88;5098344;28;20119;-58
2022/07/07 07:43:26;;;;;;;3.25;2.30;;;;;;;17.48;69.20;100563.22;5113186;28;20527;-57
2022/07/07 07:46:10;;;;;;;3.47;2.38;;;;;;;17.49;69.15;100563.19;5113772;28;20047;-57
2022/07/07 07:48:54;;;;;;;3.83;2.45;;;;;;;17.49;69.05;100571.06;5113689;28;20142;-57
2022/07/07 07:51:38;;;;;;;5.75;2.75;;;;;;;17.50;68.97;100569.31;5113329;28;20126;-57
2022/07/07 07:54:24;;;;;;;10.82;2.83;;;;;;;17.52;69.21;100567.53;5113297;28;20092;-57
2022/07/07 07:57:08;;;;;;;5.05;2.78;;;;;;;17.51;69.07;100568.47;5113341;28;20125;-57
2022/07/07 07:59:52;;;;;;;4.63;2.72;;;;;;;17.50;69.24;100571.94;5097933;28;20046;-57
2022/07/07 08:02:36;;;;;;;8.95;3.50;;;;;;;17.51;69.03;100573.69;5112751;28;20047;-57
2022/07/07 08:05:20;;;;;;;6.25;2.28;;;;;;;17.50;69.29;100583.28;5112910;28;20095;-57
2022/07/07 08:08:05;;;;;;;4.40;2.25;;;;;;;17.50;68.90;100580.66;5113131;28;20066;-58
2022/07/07 08:10:49;;;;;;;4.00;2.50;;;;;;;17.50;68.90;100585.06;5116297;28;20042;-59
2022/07/07 08:13:33;;;;;;;3.90;2.72;;;;;;;17.52;68.81;100582.41;5117308;28;20042;-57
2022/07/07 08:16:17;;;;;;;2.63;2.20;;;;;;;17.50;69.07;100592.91;5117110;28;20074;-57
2022/07/07 08:19:01;;;;;;;4.95;2.60;;;;;;;17.49;68.93;100599.88;5117150;28;20046;-59
2022/07/07 08:21:50;;;;;;;3.67;2.53;;;;;;;17.49;68.79;100596.41;5116685;28;20511;-57
2022/07/07 08:24:35;;;;;;;7.57;2.50;;;;;;;17.48;68.78;100597.28;5101213;28;20051;-58
2022/07/07 08:27:19;;;;;;;5.35;2.55;;;;;;;17.49;68.89;100602.50;5116629;28;20062;-57
2022/07/07 08:30:05;;;;;;;;;;;;;;;17.47;68.73;100603.41;5116901;28;20454;-57
2022/07/07 08:32:49;;;;;;;11.38;3.10;;;;;;;17.46;68.94;100602.50;5100923;28;19918;-58
2022/07/07 08:35:33;;;;;;;6.00;2.60;;;;;;;17.46;68.68;100609.50;5101400;28;20130;-57
2022/07/07 08:38:17;;;;;;;11.35;2.95;;;;;;;17.43;68.71;100602.53;5116468;28;20583;-57
2022/07/07 08:41:01;;;;;;;3.88;2.63;;;;;;;17.45;68.53;100613.00;5100663;28;20055;-57
2022/07/07 08:43:46;;;;;;;6.22;2.33;;;;;;;17.44;68.69;100614.75;5116597;28;20050;-57
2022/07/07 08:46:29;;;;;;;7.90;2.95;;;;;;;17.46;68.80;100604.28;5100993;28;20046;-57
2022/07/07 08:49:13;;;;;;;5.60;2.50;;;;;;;17.47;68.62;100614.72;5116229;28;20157;-57
2022/07/07 08:51:57;;;;;;;6.55;2.70;;;;;;;17.48;68.70;100620.88;5100936;28;20100;-58
2022/07/07 08:54:43;;;;;;;4.47;2.67;;;;;;;17.48;68.56;100621.72;5115980;28;20408;-57
2022/07/07 08:57:27;;;;;;;3.78;2.00;;;;;;;17.50;68.56;100627.84;5100828;28;20435;-59
2022/07/07 09:00:11;;;;;;;10.07;2.63;;;;;;;17.50;68.49;100629.59;5115737;28;20118;-59
2022/07/07 09:02:58;;;;;;;5.30;2.47;;;;;;;17.48;68.39;100641.81;5115739;28;20050;-58
2022/07/07 09:05:42;;;;;;;4.95;2.50;;;;;;;17.46;68.40;100635.72;5115824;28;20043;-59
2022/07/07 09:08:29;;;;;;;11.00;3.10;;;;;;;17.45;68.39;100645.31;5115776;28;20046;-58
2022/07/07 09:11:27;;;;;;;7.13;2.50;;;;;;;17.42;68.03;100653.19;5100655;28;20189;-59
2022/07/07 09:14:17;;;;;;;4.88;2.30;;;;;;;17.41;68.21;100651.44;5100323;28;20047;-58
2022/07/07 09:17:01;;;;;;;4.07;2.35;;;;;;;17.41;68.25;100669.78;5115434;28;20054;-58
2022/07/07 09:19:57;;;;;;;9.57;3.00;;;;;;;17.35;68.07;100665.44;5115739;28;20070;-58
2022/07/07 09:22:48;;;;;;;7.65;2.35;;;;;;;17.35;68.21;100681.16;5115604;28;20475;-58
2022/07/07 09:25:32;;;;;;;5.50;2.17;;;;;;;17.33;68.19;100684.63;5099872;28;20062;-57
2022/07/07 09:28:16;;;;;;;10.32;2.80;;;;;;;17.32;68.21;100694.25;5115770;28;20058;-57
2022/07/07 09:31:00;;;;;;;4.10;1.88;;;;;;;17.30;68.02;100689.88;5115370;28;20096;-58
2022/07/07 09:33:44;;;;;;;5.47;2.65;;;;;;;17.32;68.37;100696.88;5115192;28;20119;-57
2022/07/07 09:39:58;;;;;;;8.38;2.45;;;;;;;17.35;68.25;100688.13;5114880;28;20086;-57
2022/07/07 09:42:42;;;;;;;5.85;2.03;;;;;;;17.38;68.37;100698.63;5099353;28;20081;-57
2022/07/07 09:45:26;;;;;;;5.63;2.22;;;;;;;17.39;68.10;100694.22;5114993;28;20063;-58
2022/07/07 09:48:10;;;;;;;6.97;2.22;;;;;;;17.40;68.28;100694.25;5099824;28;20042;-58
2022/07/07 09:51:13;;;;;;;3.38;1.98;;;;;;;17.42;67.93;100692.50;5114681;28;20051;-58
2022/07/07 09:54:05;;;;;;;4.03;2.30;;;;;;;17.44;68.25;100685.47;5099778;28;20100;-58
2022/07/07 09:56:50;;;;;;;6.50;2.22;;;;;;;17.46;68.26;100688.97;5099685;28;20066;-59
2022/07/07 09:59:35;;;;;;;5.05;2.03;;;;;;;17.49;68.11;100688.97;5128699;27;20046;-59
2022/07/07 10:02:21;;;;;;;9.15;2.05;;;;;;;17.53;68.19;100695.06;5114314;28;20166;-59
2022/07/07 10:05:06;;;;;;;3.75;1.88;;;;;;;17.52;67.97;100698.56;5099023;28;20050;-56
2022/07/07 10:07:52;;;;;;;2.67;1.60;;;;;;;17.54;67.91;100703.81;5114450;28;20042;-59
2022/07/07 10:10:36;;;;;;;3.28;1.70;;;;;;;17.54;67.96;100704.69;5114737;28;20096;-57
2022/07/07 10:13:21;;;;;;;4.30;2.25;;;;;;;17.55;67.85;100711.66;5114391;28;20076;-57
2022/07/07 10:16:05;;;;;;;4.85;1.48;;;;;;;17.57;68.00;100714.31;5099048;28;20046;-58
2022/07/07 10:18:49;;;;;;;4.97;1.98;;;;;;;17.55;67.73;100724.78;5114282;28;20205;-59
2022/07/07 10:21:36;;;;;;;;;;;;;;;17.53;67.60;100729.13;5114488;28;20073;-59
2022/07/07 10:24:22;;;;;;;4.78;1.70;;;;;;;17.51;67.97;100725.69;5114749;28;20387;-57
2022/07/07 10:27:07;;;;;;;5.20;1.85;;;;;;;17.52;67.56;100740.50;5099269;28;20396;-57
2022/07/07 10:29:52;;;;;;;2.28;1.63;;;;;;;17.50;67.62;100750.13;5114613;28;20050;-58
2022/07/07 10:32:52;;;;;;;8.98;2.05;;;;;;;17.50;67.75;100758.84;5098613;28;20050;-59
2022/07/07 10:35:45;;;;;;;7.03;2.35;;;;;;;17.49;67.86;100758.88;5099118;28;20042;-58
2022/07/07 10:38:29;;;;;;;5.80;1.77;;;;;;;17.48;67.77;100762.34;5099203;28;20051;-57
2022/07/07 10:41:21;;;;;;;3.75;1.65;;;;;;;17.47;68.07;100758.00;5098765;28;20075;-57
2022/07/07 10:44:08;;;;;;;3.05;1.70;;;;;;;17.47;67.95;100761.47;5098461;28;20047;-58
2022/07/07 10:47:01;;;;;;;2.75;1.95;;;;;;;17.47;67.78;100761.47;5099001;28;20066;-58
2022/07/07 10:49:52;;;;;;;3.40;1.60;;;;;;;17.47;67.79;100768.47;5098686;28;20477;-59
2022/07/07 10:52:41;;;;;;;3.55;1.30;;;;;;;17.46;67.79;100770.19;5098486;28;20066;-57
2022/07/07 10:55:51;;;;;;;3.65;1.50;;;;;;;17.47;67.81;100771.09;5098889;28;20539;-58
2022/07/07 10:59:01;;;;;;;2.83;1.80;;;;;;;17.47;67.70;100774.56;5113772;28;20096;-57
2022/07/07 11:02:01;;;;;;;2.58;1.40;;;;;;;17.47;67.66;100778.94;5098389;28;20077;-59
2022/07/07 11:04:48;;;;;;;2.67;1.65;;;;;;;17.49;67.77;100779.81;5114072;28;20050;-59
2022/07/07 11:07:32;;;;;;;1.52;1.10;;;;;;;17.51;67.89;100783.31;5098590;28;20038;-58
2022/07/07 11:10:17;;;;;;;5.47;1.77;;;;;;;17.50;67.47;100782.44;5114139;28;20058;-59
2022/07/07 11:13:14;;;;;;;4.13;1.85;;;;;;;17.52;67.84;100785.03;5113547;28;20073;-59
2022/07/07 11:16:09;;;;;;;3.38;1.50;;;;;;;17.51;67.65;100783.31;5113279;28;20420;-59
2022/07/07 11:19:00;;;;;;;1.38;1.20;;;;;;;17.53;67.83;100785.94;5113644;28;20527;-59
2022/07/07 11:21:46;;;;;;;2.65;1.40;;;;;;;17.54;67.51;100791.16;5098350;28;20063;-57
2022/07/07 11:24:31;;;;;;;3.63;1.77;;;;;;;17.56;67.53;100789.41;5098955;28;20051;-58
2022/07/07 11:27:27;;;;;;;3.80;1.63;;;;;;;17.55;67.54;100790.28;5113702;28;20051;-57
2022/07/07 11:30:11;;;;;;;2.83;1.80;;;;;;;17.56;67.69;100786.78;5098021;28;20050;-57
2022/07/07 11:32:58;;;;;;;6.97;2.05;;;;;;;17.54;67.48;100795.53;5113683;28;20050;-57
2022/07/07 11:35:42;;;;;;;3.90;1.63;;;;;;;17.51;67.42;100796.44;5098113;28;20073;-59
2022/07/07 11:38:28;;;;;;;5.13;1.90;;;;;;;17.50;67.43;100802.53;5113433;28;20059;-59
2022/07/07 11:41:12;;;;;;;2.22;1.40;;;;;;;17.51;67.65;100806.91;5114218;28;20034;-58
2022/07/07 11:43:57;;;;;;;4.95;1.63;;;;;;;17.49;67.46;100811.28;5114929;28;20039;-56
2022/07/07 11:46:41;;;;;;;3.00;1.58;;;;;;;17.49;67.66;100812.13;5117619;28;20039;-57
2022/07/07 11:49:25;;;;;;;3.00;1.77;;;;;;;17.50;67.52;100807.78;5102221;28;20054;-57
2022/07/07 11:52:16;;;;;;;2.17;1.55;;;;;;;17.49;67.42;100806.03;5117282;28;20411;-57
2022/07/07 11:55:03;;;;;;;2.15;1.48;;;;;;;17.51;67.50;100817.38;5117198;28;20046;-57
2022/07/07 11:57:58;;;;;;;3.72;1.55;;;;;;;17.50;67.40;100806.03;5116771;28;20548;-57
2022/07/07 12:00:42;;;;;;;6.15;1.75;;;;;;;17.51;67.54;100812.16;5101789;28;20061;-57
2022/07/07 12:03:29;;;;;;;2.70;1.70;;;;;;;17.52;67.28;100816.50;5101774;28;20082;-57
2022/07/07 12:06:12;;;;;;;2.53;1.30;;;;;;;17.51;67.30;100817.38;5101160;28;20050;-57
2022/07/07 12:09:01;;;;;;;4.00;1.70;;;;;;;17.50;67.33;100823.50;5116828;28;20096;-57
2022/07/07 12:11:46;;;;;;;2.17;1.60;;;;;;;17.48;67.18;100839.22;5101678;28;20423;-59
2022/07/07 12:14:31;;;;;;;3.78;1.48;;;;;;;17.47;67.49;100828.75;5101301;28;20096;-57
2022/07/07 12:17:39;;;;;;;4.53;1.60;;;;;;;17.47;67.18;100836.59;5116777;28;20070;-59
2022/07/07 12:20:24;;;;;;;4.90;1.90;;;;;;;17.48;67.38;100840.97;5116432;28;20046;-57
2022/07/07 12:23:16;;;;;;;2.80;1.77;;;;;;;17.47;67.44;100845.31;5117252;28;20050;-59
2022/07/07 12:26:20;;;;;;;3.30;1.80;;;;;;;17.47;67.38;100842.69;5101302;28;20042;-59
2022/07/07 12:29:08;;;;;;;5.32;1.77;;;;;;;17.47;67.39;100847.09;5116670;28;20055;-57
2022/07/07 12:31:52;;;;;;;5.45;2.03;;;;;;;17.47;67.35;100847.09;5101466;28;20120;-57
2022/07/07 12:34:38;;;;;;;10.10;2.58;;;;;;;17.47;67.35;100844.47;5116462;28;20499;-57
2022/07/07 12:37:52;;;;;;;4.00;2.03;;;;;;;17.46;66.98;100854.06;5116281;28;20097;-57
2022/07/07 12:40:40;;;;;;;6.40;2.10;;;;;;;17.47;67.14;100873.28;5109538;28;20172;-57
2022/07/07 12:43:31;;;;;;;3.60;2.03;;;;;;;17.47;67.11;100866.28;5100539;28;20189;-57
2022/07/07 12:46:15;;;;;;;6.13;2.22;;;;;;;17.48;67.28;100864.56;5101265;28;20051;-57
2022/07/07 12:49:00;;;;;;;3.42;1.55;;;;;;;17.48;67.38;100864.56;5116105;28;20506;-57
2022/07/07 12:51:49;;;;;;;2.97;1.58;;;;;;;17.48;66.97;100867.16;5116342;28;20168;-57
2022/07/07 12:54:33;;;;;;;2.63;1.48;;;;;;;17.45;67.17;100865.41;5116138;28;20052;-57